sensor_id;sensor_type;location;lat;lon;timestamp;P1;durP1;ratioP1;P2;durP2;ratioP2
13443;SDS011;6794;59.218;18.218;2023-07-29T00:02:20;2.30;;;2.10;;
13443;SDS011;6794;59.218;18.218;2023-07-29T00:04:47;2.63;;;1.77;;
13443;SDS011;6794;59.218;18.218;2023-07-29T00:07:13;1.97;;;1.73;;
13443;SDS011;6794;59.218;18.218;2023-07-29T00:09:39;3.00;;;2.00;;
13443;SDS011;6794;59.218;18.218;2023-07-29T00:12:05;2.20;;;2.00;;
13443;SDS011;6794;59.218;18.218;2023-07-29T00:14:31;2.30;;;2.07;;
13443;SDS011;6794;59.218;18.218;2023-07-29T00:16:57;2.50;;;2.30;;
13443;SDS011;6794;59.218;18.218;2023-07-29T00:19:23;2.47;;;2.10;;
13443;SDS011;6794;59.218;18.218;2023-07-29T00:21:49;2.73;;;2.10;;
13443;SDS011;6794;59.218;18.218;2023-07-29T00:24:15;2.33;;;2.10;;
13443;SDS011;6794;59.218;18.218;2023-07-29T00:26:41;4.73;;;2.10;;
13443;SDS011;6794;59.218;18.218;2023-07-29T00:29:07;2.17;;;1.97;;
13443;SDS011;6794;59.218;18.218;2023-07-29T00:31:33;2.50;;;2.23;;
13443;SDS011;6794;59.218;18.218;2023-07-29T00:33:59;2.93;;;2.47;;
13443;SDS011;6794;59.218;18.218;2023-07-29T00:36:25;4.93;;;2.20;;
13443;SDS011;6794;59.218;18.218;2023-07-29T00:38:51;4.40;;;2.40;;
13443;SDS011;6794;59.218;18.218;2023-07-29T00:41:19;2.37;;;2.17;;
13443;SDS011;6794;59.218;18.218;2023-07-29T00:43:46;2.77;;;2.50;;
13443;SDS011;6794;59.218;18.218;2023-07-29T00:46:12;3.73;;;2.50;;
13443;SDS011;6794;59.218;18.218;2023-07-29T00:48:38;5.47;;;2.53;;
13443;SDS011;6794;59.218;18.218;2023-07-29T00:51:04;3.47;;;2.40;;
13443;SDS011;6794;59.218;18.218;2023-07-29T00:53:31;2.77;;;2.30;;
13443;SDS011;6794;59.218;18.218;2023-07-29T00:55:57;3.40;;;2.30;;
13443;SDS011;6794;59.218;18.218;2023-07-29T00:58:23;5.93;;;2.50;;
13443;SDS011;6794;59.218;18.218;2023-07-29T01:00:49;2.50;;;2.03;;
13443;SDS011;6794;59.218;18.218;2023-07-29T01:03:16;3.20;;;2.13;;
13443;SDS011;6794;59.218;18.218;2023-07-29T01:06:29;2.37;;;2.17;;
13443;SDS011;6794;59.218;18.218;2023-07-29T01:08:46;2.90;;;2.40;;
13443;SDS011;6794;59.218;18.218;2023-07-29T01:11:33;2.13;;;1.93;;
13443;SDS011;6794;59.218;18.218;2023-07-29T01:14:02;3.17;;;2.10;;
13443;SDS011;6794;59.218;18.218;2023-07-29T01:16:31;2.37;;;2.17;;
13443;SDS011;6794;59.218;18.218;2023-07-29T01:18:58;2.20;;;2.00;;
13443;SDS011;6794;59.218;18.218;2023-07-29T01:21:28;3.50;;;2.10;;
13443;SDS011;6794;59.218;18.218;2023-07-29T01:23:57;2.50;;;2.30;;
13443;SDS011;6794;59.218;18.218;2023-07-29T01:26:24;3.90;;;2.13;;
13443;SDS011;6794;59.218;18.218;2023-07-29T01:28:50;5.10;;;2.17;;
13443;SDS011;6794;59.218;18.218;2023-07-29T01:31:20;3.37;;;2.53;;
13443;SDS011;6794;59.218;18.218;2023-07-29T01:33:53;2.90;;;2.00;;
13443;SDS011;6794;59.218;18.218;2023-07-29T01:36:22;3.57;;;2.40;;
13443;SDS011;6794;59.218;18.218;2023-07-29T01:38:49;3.90;;;2.63;;
13443;SDS011;6794;59.218;18.218;2023-07-29T01:41:15;3.42;;;2.70;;
13443;SDS011;6794;59.218;18.218;2023-07-29T01:43:43;2.33;;;2.13;;
13443;SDS011;6794;59.218;18.218;2023-07-29T01:46:10;4.83;;;2.33;;
13443;SDS011;6794;59.218;18.218;2023-07-29T01:48:39;3.10;;;2.20;;
13443;SDS011;6794;59.218;18.218;2023-07-29T01:51:05;2.40;;;2.20;;
13443;SDS011;6794;59.218;18.218;2023-07-29T01:53:31;2.47;;;1.93;;
13443;SDS011;6794;59.218;18.218;2023-07-29T01:55:57;4.03;;;2.37;;
13443;SDS011;6794;59.218;18.218;2023-07-29T01:58:24;2.47;;;2.20;;
13443;SDS011;6794;59.218;18.218;2023-07-29T02:00:50;2.80;;;2.50;;
13443;SDS011;6794;59.218;18.218;2023-07-29T02:03:16;3.23;;;2.93;;
13443;SDS011;6794;59.218;18.218;2023-07-29T02:05:42;3.83;;;2.80;;
13443;SDS011;6794;59.218;18.218;2023-07-29T02:08:09;4.83;;;3.30;;
13443;SDS011;6794;59.218;18.218;2023-07-29T02:10:35;5.80;;;2.80;;
13443;SDS011;6794;59.218;18.218;2023-07-29T02:13:01;3.40;;;3.10;;
13443;SDS011;6794;59.218;18.218;2023-07-29T02:15:27;3.67;;;3.27;;
13443;SDS011;6794;59.218;18.218;2023-07-29T02:17:53;4.03;;;3.23;;
13443;SDS011;6794;59.218;18.218;2023-07-29T02:20:19;3.17;;;2.87;;
13443;SDS011;6794;59.218;18.218;2023-07-29T02:22:45;3.27;;;2.97;;
13443;SDS011;6794;59.218;18.218;2023-07-29T02:25:13;8.23;;;3.20;;
13443;SDS011;6794;59.218;18.218;2023-07-29T02:27:39;7.17;;;3.17;;
13443;SDS011;6794;59.218;18.218;2023-07-29T02:30:05;3.57;;;2.63;;
13443;SDS011;6794;59.218;18.218;2023-07-29T02:32:32;4.13;;;2.83;;
13443;SDS011;6794;59.218;18.218;2023-07-29T02:34:58;4.90;;;2.87;;
13443;SDS011;6794;59.218;18.218;2023-07-29T02:37:24;4.53;;;2.67;;
13443;SDS011;6794;59.218;18.218;2023-07-29T02:39:50;3.13;;;2.57;;
13443;SDS011;6794;59.218;18.218;2023-07-29T02:42:16;3.10;;;2.80;;
13443;SDS011;6794;59.218;18.218;2023-07-29T02:44:42;3.00;;;2.53;;
13443;SDS011;6794;59.218;18.218;2023-07-29T02:47:08;4.10;;;2.50;;
13443;SDS011;6794;59.218;18.218;2023-07-29T02:49:34;3.90;;;2.40;;
13443;SDS011;6794;59.218;18.218;2023-07-29T02:52:00;3.67;;;2.50;;
13443;SDS011;6794;59.218;18.218;2023-07-29T02:54:26;3.50;;;2.50;;
13443;SDS011;6794;59.218;18.218;2023-07-29T02:56:52;4.00;;;2.70;;
13443;SDS011;6794;59.218;18.218;2023-07-29T02:59:19;3.83;;;2.53;;
13443;SDS011;6794;59.218;18.218;2023-07-29T03:01:45;2.70;;;2.33;;
13443;SDS011;6794;59.218;18.218;2023-07-29T03:04:11;2.27;;;2.07;;
13443;SDS011;6794;59.218;18.218;2023-07-29T03:06:38;3.00;;;2.70;;
13443;SDS011;6794;59.218;18.218;2023-07-29T03:09:04;4.73;;;2.40;;
13443;SDS011;6794;59.218;18.218;2023-07-29T03:11:30;4.67;;;2.70;;
13443;SDS011;6794;59.218;18.218;2023-07-29T03:13:56;3.93;;;2.43;;
13443;SDS011;6794;59.218;18.218;2023-07-29T03:16:22;4.13;;;2.40;;
13443;SDS011;6794;59.218;18.218;2023-07-29T03:18:49;2.97;;;2.47;;
13443;SDS011;6794;59.218;18.218;2023-07-29T03:21:15;4.07;;;2.43;;
13443;SDS011;6794;59.218;18.218;2023-07-29T03:23:41;4.13;;;2.40;;
13443;SDS011;6794;59.218;18.218;2023-07-29T03:26:07;5.55;;;3.30;;
13443;SDS011;6794;59.218;18.218;2023-07-29T03:28:37;3.50;;;2.33;;
13443;SDS011;6794;59.218;18.218;2023-07-29T03:31:03;2.90;;;2.40;;
13443;SDS011;6794;59.218;18.218;2023-07-29T03:33:29;2.70;;;2.30;;
13443;SDS011;6794;59.218;18.218;2023-07-29T03:35:55;3.93;;;2.30;;
13443;SDS011;6794;59.218;18.218;2023-07-29T03:38:21;2.60;;;2.40;;
13443;SDS011;6794;59.218;18.218;2023-07-29T03:40:47;2.43;;;2.23;;
13443;SDS011;6794;59.218;18.218;2023-07-29T03:43:14;3.03;;;2.20;;
13443;SDS011;6794;59.218;18.218;2023-07-29T03:45:40;2.90;;;2.30;;
13443;SDS011;6794;59.218;18.218;2023-07-29T03:48:06;2.73;;;2.30;;
13443;SDS011;6794;59.218;18.218;2023-07-29T03:50:35;3.70;;;2.00;;
13443;SDS011;6794;59.218;18.218;2023-07-29T03:53:04;4.87;;;2.47;;
13443;SDS011;6794;59.218;18.218;2023-07-29T03:55:31;2.87;;;2.20;;
13443;SDS011;6794;59.218;18.218;2023-07-29T03:57:57;2.63;;;2.10;;
13443;SDS011;6794;59.218;18.218;2023-07-29T04:00:24;2.03;;;1.93;;
13443;SDS011;6794;59.218;18.218;2023-07-29T04:02:50;2.30;;;2.10;;
13443;SDS011;6794;59.218;18.218;2023-07-29T04:05:17;2.23;;;2.03;;
13443;SDS011;6794;59.218;18.218;2023-07-29T04:07:43;2.40;;;2.10;;
13443;SDS011;6794;59.218;18.218;2023-07-29T04:10:09;3.43;;;2.37;;
13443;SDS011;6794;59.218;18.218;2023-07-29T04:12:35;2.37;;;2.13;;
13443;SDS011;6794;59.218;18.218;2023-07-29T04:15:02;2.50;;;2.10;;
13443;SDS011;6794;59.218;18.218;2023-07-29T04:17:28;3.07;;;2.30;;
13443;SDS011;6794;59.218;18.218;2023-07-29T04:19:54;2.50;;;2.30;;
13443;SDS011;6794;59.218;18.218;2023-07-29T04:22:20;2.33;;;2.10;;
13443;SDS011;6794;59.218;18.218;2023-07-29T04:24:46;3.77;;;2.10;;
13443;SDS011;6794;59.218;18.218;2023-07-29T04:27:12;4.20;;;2.40;;
13443;SDS011;6794;59.218;18.218;2023-07-29T04:29:38;2.67;;;2.47;;
13443;SDS011;6794;59.218;18.218;2023-07-29T04:32:04;2.73;;;2.27;;
13443;SDS011;6794;59.218;18.218;2023-07-29T04:34:31;2.50;;;2.30;;
13443;SDS011;6794;59.218;18.218;2023-07-29T04:36:57;3.43;;;2.20;;
13443;SDS011;6794;59.218;18.218;2023-07-29T04:39:23;2.30;;;2.10;;
13443;SDS011;6794;59.218;18.218;2023-07-29T04:41:49;2.67;;;2.47;;
13443;SDS011;6794;59.218;18.218;2023-07-29T04:44:15;2.40;;;2.20;;
13443;SDS011;6794;59.218;18.218;2023-07-29T04:46:41;2.33;;;2.13;;
13443;SDS011;6794;59.218;18.218;2023-07-29T04:49:07;3.10;;;2.67;;
13443;SDS011;6794;59.218;18.218;2023-07-29T04:51:33;2.53;;;2.20;;
13443;SDS011;6794;59.218;18.218;2023-07-29T04:53:59;2.57;;;2.10;;
13443;SDS011;6794;59.218;18.218;2023-07-29T04:56:25;2.83;;;2.27;;
13443;SDS011;6794;59.218;18.218;2023-07-29T04:58:51;2.23;;;2.03;;
13443;SDS011;6794;59.218;18.218;2023-07-29T05:01:18;3.60;;;2.30;;
13443;SDS011;6794;59.218;18.218;2023-07-29T05:03:44;2.73;;;2.47;;
13443;SDS011;6794;59.218;18.218;2023-07-29T05:06:11;2.87;;;2.33;;
13443;SDS011;6794;59.218;18.218;2023-07-29T05:08:37;2.92;;;2.30;;
13443;SDS011;6794;59.218;18.218;2023-07-29T05:11:03;2.30;;;2.10;;
13443;SDS011;6794;59.218;18.218;2023-07-29T05:13:29;3.97;;;2.07;;
13443;SDS011;6794;59.218;18.218;2023-07-29T05:15:55;2.30;;;2.00;;
13443;SDS011;6794;59.218;18.218;2023-07-29T05:18:21;2.47;;;2.27;;
13443;SDS011;6794;59.218;18.218;2023-07-29T05:20:47;2.10;;;1.90;;
13443;SDS011;6794;59.218;18.218;2023-07-29T05:23:13;2.57;;;2.10;;
13443;SDS011;6794;59.218;18.218;2023-07-29T05:25:39;2.20;;;1.80;;
13443;SDS011;6794;59.218;18.218;2023-07-29T05:28:05;3.17;;;2.13;;
13443;SDS011;6794;59.218;18.218;2023-07-29T05:30:32;3.67;;;2.03;;
13443;SDS011;6794;59.218;18.218;2023-07-29T05:33:02;2.00;;;1.90;;
13443;SDS011;6794;59.218;18.218;2023-07-29T05:35:28;3.03;;;1.93;;
13443;SDS011;6794;59.218;18.218;2023-07-29T05:37:54;3.23;;;1.90;;
13443;SDS011;6794;59.218;18.218;2023-07-29T05:40:20;4.00;;;2.07;;
13443;SDS011;6794;59.218;18.218;2023-07-29T05:42:46;2.63;;;1.80;;
13443;SDS011;6794;59.218;18.218;2023-07-29T05:45:12;2.07;;;1.87;;
13443;SDS011;6794;59.218;18.218;2023-07-29T05:47:39;1.83;;;1.73;;
13443;SDS011;6794;59.218;18.218;2023-07-29T05:50:05;3.07;;;2.00;;
13443;SDS011;6794;59.218;18.218;2023-07-29T05:52:31;2.03;;;1.83;;
13443;SDS011;6794;59.218;18.218;2023-07-29T05:54:57;2.20;;;2.00;;
13443;SDS011;6794;59.218;18.218;2023-07-29T05:57:23;1.80;;;1.70;;
13443;SDS011;6794;59.218;18.218;2023-07-29T05:59:49;1.87;;;1.77;;
13443;SDS011;6794;59.218;18.218;2023-07-29T06:02:16;3.63;;;1.70;;
13443;SDS011;6794;59.218;18.218;2023-07-29T06:04:42;2.10;;;1.90;;
13443;SDS011;6794;59.218;18.218;2023-07-29T06:07:08;2.07;;;1.80;;
13443;SDS011;6794;59.218;18.218;2023-07-29T06:09:34;2.27;;;2.07;;
13443;SDS011;6794;59.218;18.218;2023-07-29T06:12:00;4.13;;;1.90;;
13443;SDS011;6794;59.218;18.218;2023-07-29T06:14:26;2.67;;;1.60;;
13443;SDS011;6794;59.218;18.218;2023-07-29T06:16:52;2.10;;;1.87;;
13443;SDS011;6794;59.218;18.218;2023-07-29T06:19:19;2.63;;;1.80;;
13443;SDS011;6794;59.218;18.218;2023-07-29T06:21:45;1.57;;;1.47;;
13443;SDS011;6794;59.218;18.218;2023-07-29T06:24:11;3.70;;;1.60;;
13443;SDS011;6794;59.218;18.218;2023-07-29T06:26:38;1.90;;;1.80;;
13443;SDS011;6794;59.218;18.218;2023-07-29T06:29:04;1.73;;;1.63;;
13443;SDS011;6794;59.218;18.218;2023-07-29T06:31:30;2.40;;;1.70;;
13443;SDS011;6794;59.218;18.218;2023-07-29T06:33:57;1.87;;;1.70;;
13443;SDS011;6794;59.218;18.218;2023-07-29T06:36:23;2.03;;;1.50;;
13443;SDS011;6794;59.218;18.218;2023-07-29T06:38:49;2.43;;;1.50;;
13443;SDS011;6794;59.218;18.218;2023-07-29T06:41:15;1.70;;;1.60;;
13443;SDS011;6794;59.218;18.218;2023-07-29T06:43:42;2.13;;;1.77;;
13443;SDS011;6794;59.218;18.218;2023-07-29T06:46:08;1.57;;;1.47;;
13443;SDS011;6794;59.218;18.218;2023-07-29T06:48:34;2.30;;;1.70;;
13443;SDS011;6794;59.218;18.218;2023-07-29T06:51:00;3.13;;;1.70;;
13443;SDS011;6794;59.218;18.218;2023-07-29T06:53:27;2.30;;;1.40;;
13443;SDS011;6794;59.218;18.218;2023-07-29T06:55:53;1.90;;;1.70;;
13443;SDS011;6794;59.218;18.218;2023-07-29T06:58:19;2.67;;;1.90;;
13443;SDS011;6794;59.218;18.218;2023-07-29T07:00:46;2.83;;;1.70;;
13443;SDS011;6794;59.218;18.218;2023-07-29T07:03:12;1.50;;;1.40;;
13443;SDS011;6794;59.218;18.218;2023-07-29T07:05:38;2.20;;;2.00;;
13443;SDS011;6794;59.218;18.218;2023-07-29T07:08:04;2.27;;;1.40;;
13443;SDS011;6794;59.218;18.218;2023-07-29T07:10:30;1.97;;;1.60;;
13443;SDS011;6794;59.218;18.218;2023-07-29T07:12:56;1.50;;;1.40;;
13443;SDS011;6794;59.218;18.218;2023-07-29T07:15:22;1.73;;;1.63;;
13443;SDS011;6794;59.218;18.218;2023-07-29T07:17:48;1.80;;;1.70;;
13443;SDS011;6794;59.218;18.218;2023-07-29T07:20:14;1.90;;;1.63;;
13443;SDS011;6794;59.218;18.218;2023-07-29T07:22:40;1.70;;;1.60;;
13443;SDS011;6794;59.218;18.218;2023-07-29T07:25:07;2.83;;;1.70;;
13443;SDS011;6794;59.218;18.218;2023-07-29T07:27:33;2.10;;;1.40;;
13443;SDS011;6794;59.218;18.218;2023-07-29T07:29:59;1.33;;;1.23;;
13443;SDS011;6794;59.218;18.218;2023-07-29T07:32:25;1.70;;;1.60;;
13443;SDS011;6794;59.218;18.218;2023-07-29T07:34:51;1.60;;;1.50;;
13443;SDS011;6794;59.218;18.218;2023-07-29T07:37:17;1.53;;;1.37;;
13443;SDS011;6794;59.218;18.218;2023-07-29T07:39:43;1.40;;;1.30;;
13443;SDS011;6794;59.218;18.218;2023-07-29T07:42:09;1.83;;;1.50;;
13443;SDS011;6794;59.218;18.218;2023-07-29T07:44:35;1.73;;;1.30;;
13443;SDS011;6794;59.218;18.218;2023-07-29T07:47:01;1.87;;;1.40;;
13443;SDS011;6794;59.218;18.218;2023-07-29T07:49:28;1.40;;;1.30;;
13443;SDS011;6794;59.218;18.218;2023-07-29T07:51:54;2.23;;;1.50;;
13443;SDS011;6794;59.218;18.218;2023-07-29T07:54:20;2.17;;;1.23;;
13443;SDS011;6794;59.218;18.218;2023-07-29T07:56:46;2.10;;;1.30;;
13443;SDS011;6794;59.218;18.218;2023-07-29T07:59:12;1.53;;;1.37;;
13443;SDS011;6794;59.218;18.218;2023-07-29T08:01:38;1.50;;;1.40;;
13443;SDS011;6794;59.218;18.218;2023-07-29T08:04:05;1.60;;;1.43;;
13443;SDS011;6794;59.218;18.218;2023-07-29T08:06:31;1.83;;;1.67;;
13443;SDS011;6794;59.218;18.218;2023-07-29T08:08:57;1.50;;;1.40;;
13443;SDS011;6794;59.218;18.218;2023-07-29T08:11:24;1.47;;;1.37;;
13443;SDS011;6794;59.218;18.218;2023-07-29T08:13:50;1.40;;;1.30;;
13443;SDS011;6794;59.218;18.218;2023-07-29T08:16:16;1.30;;;1.20;;
13443;SDS011;6794;59.218;18.218;2023-07-29T08:18:42;1.30;;;1.20;;
13443;SDS011;6794;59.218;18.218;2023-07-29T08:21:08;1.80;;;1.30;;
13443;SDS011;6794;59.218;18.218;2023-07-29T08:23:35;2.37;;;1.47;;
13443;SDS011;6794;59.218;18.218;2023-07-29T08:26:02;2.13;;;1.40;;
13443;SDS011;6794;59.218;18.218;2023-07-29T08:28:34;1.53;;;1.30;;
13443;SDS011;6794;59.218;18.218;2023-07-29T08:31:00;1.50;;;1.40;;
13443;SDS011;6794;59.218;18.218;2023-07-29T08:33:26;1.40;;;1.30;;
13443;SDS011;6794;59.218;18.218;2023-07-29T08:35:52;2.57;;;1.30;;
13443;SDS011;6794;59.218;18.218;2023-07-29T08:38:19;1.98;;;1.45;;
13443;SDS011;6794;59.218;18.218;2023-07-29T08:40:47;1.40;;;1.20;;
13443;SDS011;6794;59.218;18.218;2023-07-29T08:43:16;1.30;;;1.20;;
13443;SDS011;6794;59.218;18.218;2023-07-29T08:45:44;1.60;;;1.10;;
13443;SDS011;6794;59.218;18.218;2023-07-29T08:48:11;2.80;;;1.27;;
13443;SDS011;6794;59.218;18.218;2023-07-29T08:50:38;1.80;;;1.20;;
13443;SDS011;6794;59.218;18.218;2023-07-29T08:53:04;1.20;;;1.07;;
13443;SDS011;6794;59.218;18.218;2023-07-29T08:55:31;1.97;;;1.17;;
13443;SDS011;6794;59.218;18.218;2023-07-29T08:58:00;1.30;;;1.20;;
13443;SDS011;6794;59.218;18.218;2023-07-29T09:00:27;2.40;;;1.20;;
13443;SDS011;6794;59.218;18.218;2023-07-29T09:02:53;1.37;;;1.27;;
13443;SDS011;6794;59.218;18.218;2023-07-29T09:05:22;1.50;;;1.40;;
13443;SDS011;6794;59.218;18.218;2023-07-29T09:07:49;2.07;;;1.30;;
13443;SDS011;6794;59.218;18.218;2023-07-29T09:10:19;2.17;;;1.30;;
13443;SDS011;6794;59.218;18.218;2023-07-29T09:12:48;2.90;;;1.30;;
13443;SDS011;6794;59.218;18.218;2023-07-29T09:15:20;1.30;;;1.20;;
13443;SDS011;6794;59.218;18.218;2023-07-29T09:17:51;1.40;;;1.30;;
13443;SDS011;6794;59.218;18.218;2023-07-29T09:20:23;1.60;;;1.27;;
13443;SDS011;6794;59.218;18.218;2023-07-29T09:22:49;1.30;;;1.20;;
13443;SDS011;6794;59.218;18.218;2023-07-29T09:25:15;2.73;;;1.43;;
13443;SDS011;6794;59.218;18.218;2023-07-29T09:27:42;1.23;;;1.00;;
13443;SDS011;6794;59.218;18.218;2023-07-29T09:30:15;2.30;;;1.33;;
13443;SDS011;6794;59.218;18.218;2023-07-29T09:32:41;2.40;;;1.20;;
13443;SDS011;6794;59.218;18.218;2023-07-29T09:35:11;2.17;;;1.10;;
13443;SDS011;6794;59.218;18.218;2023-07-29T09:37:37;1.57;;;1.30;;
13443;SDS011;6794;59.218;18.218;2023-07-29T09:40:04;2.40;;;1.27;;
13443;SDS011;6794;59.218;18.218;2023-07-29T09:42:30;1.60;;;1.50;;
13443;SDS011;6794;59.218;18.218;2023-07-29T09:44:56;1.70;;;1.37;;
13443;SDS011;6794;59.218;18.218;2023-07-29T09:47:22;1.33;;;1.20;;
13443;SDS011;6794;59.218;18.218;2023-07-29T09:49:49;1.37;;;1.20;;
13443;SDS011;6794;59.218;18.218;2023-07-29T09:52:16;1.50;;;1.30;;
13443;SDS011;6794;59.218;18.218;2023-07-29T09:54:43;1.57;;;1.20;;
13443;SDS011;6794;59.218;18.218;2023-07-29T09:57:10;1.87;;;1.20;;
13443;SDS011;6794;59.218;18.218;2023-07-29T09:59:37;1.17;;;1.07;;
13443;SDS011;6794;59.218;18.218;2023-07-29T10:02:03;3.67;;;1.30;;
13443;SDS011;6794;59.218;18.218;2023-07-29T10:04:29;1.20;;;1.03;;
13443;SDS011;6794;59.218;18.218;2023-07-29T10:06:55;1.30;;;1.20;;
13443;SDS011;6794;59.218;18.218;2023-07-29T10:09:22;1.50;;;1.07;;
13443;SDS011;6794;59.218;18.218;2023-07-29T10:11:48;1.30;;;1.20;;
13443;SDS011;6794;59.218;18.218;2023-07-29T10:14:16;1.70;;;1.00;;
13443;SDS011;6794;59.218;18.218;2023-07-29T10:16:42;1.70;;;1.20;;
13443;SDS011;6794;59.218;18.218;2023-07-29T10:19:10;1.00;;;1.00;;
13443;SDS011;6794;59.218;18.218;2023-07-29T10:21:38;1.10;;;1.00;;
13443;SDS011;6794;59.218;18.218;2023-07-29T10:24:06;1.23;;;1.13;;
13443;SDS011;6794;59.218;18.218;2023-07-29T10:26:33;1.40;;;1.30;;
13443;SDS011;6794;59.218;18.218;2023-07-29T10:28:59;1.30;;;1.20;;
13443;SDS011;6794;59.218;18.218;2023-07-29T10:31:29;1.77;;;1.37;;
13443;SDS011;6794;59.218;18.218;2023-07-29T10:33:56;1.57;;;1.30;;
13443;SDS011;6794;59.218;18.218;2023-07-29T10:36:22;1.07;;;1.07;;
13443;SDS011;6794;59.218;18.218;2023-07-29T10:38:49;1.90;;;1.20;;
13443;SDS011;6794;59.218;18.218;2023-07-29T10:41:15;1.83;;;1.20;;
13443;SDS011;6794;59.218;18.218;2023-07-29T10:43:41;1.33;;;1.23;;
13443;SDS011;6794;59.218;18.218;2023-07-29T10:46:17;1.47;;;1.30;;
13443;SDS011;6794;59.218;18.218;2023-07-29T10:48:43;2.20;;;1.47;;
13443;SDS011;6794;59.218;18.218;2023-07-29T10:54:09;1.80;;;1.53;;
13443;SDS011;6794;59.218;18.218;2023-07-29T10:56:35;1.60;;;1.00;;
13443;SDS011;6794;59.218;18.218;2023-07-29T11:01:38;1.77;;;1.07;;
13443;SDS011;6794;59.218;18.218;2023-07-29T11:09:41;1.23;;;1.13;;
13443;SDS011;6794;59.218;18.218;2023-07-29T11:14:52;3.13;;;1.37;;
13443;SDS011;6794;59.218;18.218;2023-07-29T11:17:18;1.20;;;1.10;;
13443;SDS011;6794;59.218;18.218;2023-07-29T11:19:44;1.60;;;1.30;;
13443;SDS011;6794;59.218;18.218;2023-07-29T11:22:10;1.63;;;1.07;;
13443;SDS011;6794;59.218;18.218;2023-07-29T11:24:43;1.23;;;1.13;;
13443;SDS011;6794;59.218;18.218;2023-07-29T11:27:12;1.30;;;1.10;;
13443;SDS011;6794;59.218;18.218;2023-07-29T11:29:38;1.83;;;1.43;;
13443;SDS011;6794;59.218;18.218;2023-07-29T11:32:04;1.53;;;1.40;;
13443;SDS011;6794;59.218;18.218;2023-07-29T11:34:31;1.40;;;1.30;;
13443;SDS011;6794;59.218;18.218;2023-07-29T11:36:57;2.03;;;1.47;;
13443;SDS011;6794;59.218;18.218;2023-07-29T11:39:23;1.60;;;1.50;;
13443;SDS011;6794;59.218;18.218;2023-07-29T11:41:49;1.77;;;1.27;;
13443;SDS011;6794;59.218;18.218;2023-07-29T11:44:18;1.50;;;1.30;;
13443;SDS011;6794;59.218;18.218;2023-07-29T11:46:44;2.00;;;1.37;;
13443;SDS011;6794;59.218;18.218;2023-07-29T11:49:13;2.13;;;1.23;;
13443;SDS011;6794;59.218;18.218;2023-07-29T11:51:40;1.93;;;1.57;;
13443;SDS011;6794;59.218;18.218;2023-07-29T11:54:07;1.47;;;1.37;;
13443;SDS011;6794;59.218;18.218;2023-07-29T11:56:34;1.70;;;1.30;;
13443;SDS011;6794;59.218;18.218;2023-07-29T11:59:01;2.07;;;1.23;;
13443;SDS011;6794;59.218;18.218;2023-07-29T12:01:28;1.63;;;1.30;;
13443;SDS011;6794;59.218;18.218;2023-07-29T12:03:55;2.43;;;1.30;;
13443;SDS011;6794;59.218;18.218;2023-07-29T12:06:22;2.23;;;1.90;;
13443;SDS011;6794;59.218;18.218;2023-07-29T12:08:49;1.53;;;1.30;;
13443;SDS011;6794;59.218;18.218;2023-07-29T12:11:15;1.73;;;1.30;;
13443;SDS011;6794;59.218;18.218;2023-07-29T12:13:41;1.30;;;1.20;;
13443;SDS011;6794;59.218;18.218;2023-07-29T12:16:07;2.30;;;1.13;;
13443;SDS011;6794;59.218;18.218;2023-07-29T12:18:34;1.30;;;1.20;;
13443;SDS011;6794;59.218;18.218;2023-07-29T12:21:00;1.30;;;1.20;;
13443;SDS011;6794;59.218;18.218;2023-07-29T12:23:26;1.95;;;1.40;;
13443;SDS011;6794;59.218;18.218;2023-07-29T12:25:56;1.57;;;1.20;;
13443;SDS011;6794;59.218;18.218;2023-07-29T12:28:22;1.50;;;1.40;;
13443;SDS011;6794;59.218;18.218;2023-07-29T12:30:57;2.00;;;1.10;;
13443;SDS011;6794;59.218;18.218;2023-07-29T12:33:30;1.20;;;1.10;;
13443;SDS011;6794;59.218;18.218;2023-07-29T12:35:56;1.40;;;1.30;;
13443;SDS011;6794;59.218;18.218;2023-07-29T12:38:23;2.13;;;1.13;;
13443;SDS011;6794;59.218;18.218;2023-07-29T12:40:48;1.30;;;1.20;;
13443;SDS011;6794;59.218;18.218;2023-07-29T12:43:14;1.53;;;1.43;;
13443;SDS011;6794;59.218;18.218;2023-07-29T12:45:40;1.50;;;1.30;;
13443;SDS011;6794;59.218;18.218;2023-07-29T12:48:07;1.30;;;1.20;;
13443;SDS011;6794;59.218;18.218;2023-07-29T12:50:33;2.53;;;1.40;;
13443;SDS011;6794;59.218;18.218;2023-07-29T12:52:59;3.40;;;1.50;;
13443;SDS011;6794;59.218;18.218;2023-07-29T12:55:25;2.17;;;1.20;;
13443;SDS011;6794;59.218;18.218;2023-07-29T12:57:51;1.20;;;1.10;;
13443;SDS011;6794;59.218;18.218;2023-07-29T13:00:18;1.63;;;0.93;;
13443;SDS011;6794;59.218;18.218;2023-07-29T13:02:44;1.40;;;1.30;;
13443;SDS011;6794;59.218;18.218;2023-07-29T13:05:10;1.80;;;1.43;;
13443;SDS011;6794;59.218;18.218;2023-07-29T13:07:39;1.50;;;1.33;;
13443;SDS011;6794;59.218;18.218;2023-07-29T13:10:05;1.40;;;1.23;;
13443;SDS011;6794;59.218;18.218;2023-07-29T13:12:32;1.40;;;1.20;;
13443;SDS011;6794;59.218;18.218;2023-07-29T13:14:58;1.57;;;1.40;;
13443;SDS011;6794;59.218;18.218;2023-07-29T13:17:24;1.90;;;1.33;;
13443;SDS011;6794;59.218;18.218;2023-07-29T13:19:50;1.80;;;1.40;;
13443;SDS011;6794;59.218;18.218;2023-07-29T13:22:16;3.10;;;1.50;;
13443;SDS011;6794;59.218;18.218;2023-07-29T13:24:42;1.33;;;1.27;;
13443;SDS011;6794;59.218;18.218;2023-07-29T13:27:08;1.60;;;1.50;;
13443;SDS011;6794;59.218;18.218;2023-07-29T13:29:34;1.50;;;1.20;;
13443;SDS011;6794;59.218;18.218;2023-07-29T13:32:00;1.40;;;1.30;;
13443;SDS011;6794;59.218;18.218;2023-07-29T13:34:26;1.40;;;1.30;;
13443;SDS011;6794;59.218;18.218;2023-07-29T13:36:53;1.60;;;1.50;;
13443;SDS011;6794;59.218;18.218;2023-07-29T13:39:19;1.30;;;1.20;;
13443;SDS011;6794;59.218;18.218;2023-07-29T13:41:45;1.57;;;1.30;;
13443;SDS011;6794;59.218;18.218;2023-07-29T13:44:11;2.20;;;1.20;;
13443;SDS011;6794;59.218;18.218;2023-07-29T13:46:37;3.37;;;1.40;;
13443;SDS011;6794;59.218;18.218;2023-07-29T13:49:03;1.10;;;1.10;;
13443;SDS011;6794;59.218;18.218;2023-07-29T13:51:29;1.40;;;1.30;;
13443;SDS011;6794;59.218;18.218;2023-07-29T13:53:55;1.90;;;1.40;;
13443;SDS011;6794;59.218;18.218;2023-07-29T13:56:21;2.10;;;1.57;;
13443;SDS011;6794;59.218;18.218;2023-07-29T13:58:47;1.97;;;1.37;;
13443;SDS011;6794;59.218;18.218;2023-07-29T14:01:13;1.60;;;1.40;;
13443;SDS011;6794;59.218;18.218;2023-07-29T14:03:39;1.40;;;1.30;;
13443;SDS011;6794;59.218;18.218;2023-07-29T14:06:05;2.03;;;1.30;;
13443;SDS011;6794;59.218;18.218;2023-07-29T14:08:31;2.27;;;1.40;;
13443;SDS011;6794;59.218;18.218;2023-07-29T14:10:57;1.33;;;1.20;;
13443;SDS011;6794;59.218;18.218;2023-07-29T14:13:23;2.87;;;1.37;;
13443;SDS011;6794;59.218;18.218;2023-07-29T14:15:49;1.97;;;1.53;;
13443;SDS011;6794;59.218;18.218;2023-07-29T14:18:15;1.40;;;1.30;;
13443;SDS011;6794;59.218;18.218;2023-07-29T14:20:41;2.40;;;1.40;;
13443;SDS011;6794;59.218;18.218;2023-07-29T14:23:07;2.03;;;1.33;;
13443;SDS011;6794;59.218;18.218;2023-07-29T14:25:33;1.67;;;1.30;;
13443;SDS011;6794;59.218;18.218;2023-07-29T14:27:59;1.83;;;1.33;;
13443;SDS011;6794;59.218;18.218;2023-07-29T14:30:25;1.93;;;1.60;;
13443;SDS011;6794;59.218;18.218;2023-07-29T14:32:51;1.40;;;1.30;;
13443;SDS011;6794;59.218;18.218;2023-07-29T14:35:17;2.33;;;1.30;;
13443;SDS011;6794;59.218;18.218;2023-07-29T14:37:43;2.40;;;1.30;;
13443;SDS011;6794;59.218;18.218;2023-07-29T14:40:09;1.50;;;1.40;;
13443;SDS011;6794;59.218;18.218;2023-07-29T14:42:35;2.03;;;1.50;;
13443;SDS011;6794;59.218;18.218;2023-07-29T14:45:02;1.40;;;1.20;;
13443;SDS011;6794;59.218;18.218;2023-07-29T14:47:28;2.23;;;1.50;;
13443;SDS011;6794;59.218;18.218;2023-07-29T14:49:57;1.50;;;1.30;;
13443;SDS011;6794;59.218;18.218;2023-07-29T14:52:23;1.60;;;1.50;;
13443;SDS011;6794;59.218;18.218;2023-07-29T14:54:49;1.50;;;1.40;;
13443;SDS011;6794;59.218;18.218;2023-07-29T14:57:16;1.67;;;1.23;;
13443;SDS011;6794;59.218;18.218;2023-07-29T14:59:42;2.23;;;1.47;;